createdAt,value
2017-11-24T00:00:17.078Z,2.20
2017-11-24T00:02:45.439Z,3.97
2017-11-24T00:05:13.822Z,5.47
2017-11-24T00:07:42.152Z,3.22
2017-11-24T00:10:12.010Z,5.12
2017-11-24T00:12:40.297Z,5.37
2017-11-24T00:15:08.789Z,3.72
2017-11-24T00:17:37.187Z,5.75
2017-11-24T00:20:07.074Z,2.95
2017-11-24T00:22:35.343Z,2.70
2017-11-24T00:25:03.676Z,2.85
2017-11-24T00:27:32.720Z,3.00
2017-11-24T00:30:01.028Z,4.18
2017-11-24T00:32:29.267Z,2.97
2017-11-24T00:34:57.521Z,3.45
2017-11-24T00:37:25.800Z,2.30
2017-11-24T00:39:54.031Z,2.22
2017-11-24T00:42:23.091Z,3.97
2017-11-24T00:44:52.139Z,3.90
2017-11-24T00:47:20.404Z,2.47
2017-11-24T00:49:49.461Z,4.15
2017-11-24T00:52:17.705Z,5.12
2017-11-24T00:54:46.000Z,6.28
2017-11-24T00:57:14.283Z,3.25
2017-11-24T00:59:43.287Z,4.68
2017-11-24T01:02:11.559Z,7.25
2017-11-24T01:04:39.846Z,4.75
2017-11-24T01:07:08.348Z,4.18
2017-11-24T01:09:37.380Z,4.32
2017-11-24T01:12:05.666Z,3.53
2017-11-24T01:14:33.920Z,3.67
2017-11-24T01:17:03.237Z,3.97
2017-11-24T01:19:31.478Z,4.03
2017-11-24T01:21:59.783Z,4.35
2017-11-24T01:24:28.103Z,3.97
2017-11-24T01:26:56.364Z,4.60
2017-11-24T01:29:24.642Z,3.42
2017-11-24T01:31:52.940Z,2.95
2017-11-24T01:34:22.190Z,4.10
2017-11-24T01:36:50.554Z,4.80
2017-11-24T01:39:19.596Z,5.00
2017-11-24T01:41:47.869Z,5.25
2017-11-24T01:44:16.121Z,6.20
2017-11-24T01:46:44.455Z,3.83
2017-11-24T01:49:12.701Z,3.58
2017-11-24T01:51:40.996Z,3.67
2017-11-24T01:54:09.246Z,6.90
2017-11-24T01:56:37.499Z,2.87
2017-11-24T01:59:05.803Z,4.00
2017-11-24T02:01:34.807Z,3.15
2017-11-24T02:04:03.871Z,4.87
2017-11-24T02:06:32.124Z,5.72
2017-11-24T02:09:00.389Z,4.57
2017-11-24T02:11:28.637Z,2.20
2017-11-24T02:13:56.884Z,4.18
2017-11-24T02:16:25.148Z,6.93
2017-11-24T02:18:53.465Z,3.00
2017-11-24T02:21:21.708Z,4.20
2017-11-24T02:23:49.980Z,4.05
2017-11-24T02:26:18.222Z,4.28
2017-11-24T02:28:46.455Z,4.05
2017-11-24T02:31:15.504Z,6.72
2017-11-24T02:33:43.830Z,4.80
2017-11-24T02:36:12.935Z,6.20
2017-11-24T02:38:41.224Z,3.83
2017-11-24T02:41:09.537Z,5.78
2017-11-24T02:43:37.761Z,4.53
2017-11-24T02:46:06.009Z,5.70
2017-11-24T02:48:35.020Z,5.35
2017-11-24T02:51:03.456Z,2.10
2017-11-24T02:53:31.777Z,6.35
2017-11-24T02:56:00.016Z,2.45
2017-11-24T02:58:28.262Z,4.47
2017-11-24T03:00:56.545Z,5.30
2017-11-24T03:03:24.805Z,3.90
2017-11-24T03:05:53.061Z,5.47
2017-11-24T03:08:21.322Z,2.83
2017-11-24T03:10:49.571Z,3.85
2017-11-24T03:13:17.833Z,3.90
2017-11-24T03:15:46.988Z,6.12
2017-11-24T03:18:15.207Z,3.97
2017-11-24T03:20:43.476Z,4.37
2017-11-24T03:23:11.720Z,4.05
2017-11-24T03:25:39.991Z,4.55
2017-11-24T03:28:08.251Z,4.03
2017-11-24T03:30:36.536Z,7.55
2017-11-24T03:33:04.861Z,5.62
2017-11-24T03:35:33.148Z,3.08
2017-11-24T03:38:02.181Z,5.70
2017-11-24T03:40:30.472Z,5.82
2017-11-24T03:42:58.821Z,3.75
2017-11-24T03:45:27.092Z,7.87
2017-11-24T03:47:55.366Z,4.62
2017-11-24T03:50:23.744Z,4.60
2017-11-24T03:52:52.020Z,5.35
2017-11-24T03:55:20.283Z,4.72
2017-11-24T03:57:49.335Z,3.00
2017-11-24T04:00:17.576Z,2.80
2017-11-24T04:02:45.811Z,2.55
2017-11-24T04:05:14.115Z,2.67
2017-11-24T04:07:42.384Z,6.82
2017-11-24T04:10:10.634Z,6.78
2017-11-24T04:12:38.900Z,5.20
2017-11-24T04:15:07.146Z,5.87
2017-11-24T04:17:35.395Z,6.95
2017-11-24T04:20:03.719Z,3.83
2017-11-24T04:22:31.950Z,7.30
2017-11-24T04:25:00.178Z,2.75
2017-11-24T04:27:28.419Z,4.85
2017-11-24T04:29:56.678Z,7.87
2017-11-24T04:32:24.944Z,4.87
2017-11-24T04:34:53.235Z,4.45
2017-11-24T04:37:21.486Z,4.47
2017-11-24T04:39:49.721Z,4.05
2017-11-24T04:42:18.493Z,4.12
2017-11-24T04:44:46.750Z,6.28
2017-11-24T04:47:15.008Z,5.68
2017-11-24T04:49:43.338Z,3.90
2017-11-24T04:52:11.571Z,4.45
2017-11-24T04:54:39.814Z,2.67
2017-11-24T04:57:08.841Z,5.82
2017-11-24T04:59:37.211Z,3.28
2017-11-24T05:02:05.498Z,5.50
2017-11-24T05:04:33.740Z,3.55
2017-11-24T05:07:02.756Z,6.57
2017-11-24T05:09:31.005Z,3.60
2017-11-24T05:12:00.119Z,4.47
2017-11-24T05:14:28.367Z,4.05
2017-11-24T05:16:57.420Z,3.67
2017-11-24T05:19:25.752Z,2.90
2017-11-24T05:21:53.990Z,4.75
2017-11-24T05:24:22.333Z,5.00
2017-11-24T05:26:50.640Z,2.40
2017-11-24T05:29:18.890Z,4.05
2017-11-24T05:31:47.171Z,3.90
2017-11-24T05:34:15.444Z,3.00
2017-11-24T05:36:43.707Z,3.62
2017-11-24T05:39:11.965Z,5.10
2017-11-24T05:41:40.237Z,5.28
2017-11-24T05:44:08.595Z,3.10
2017-11-24T05:46:37.612Z,4.65
2017-11-24T05:49:05.952Z,5.37
2017-11-24T05:51:34.987Z,4.07
2017-11-24T05:54:03.300Z,5.00
2017-11-24T05:56:31.546Z,5.03
2017-11-24T05:58:59.827Z,5.20
2017-11-24T06:01:28.203Z,6.10
2017-11-24T06:03:56.974Z,6.22
2017-11-24T06:06:25.224Z,4.07
2017-11-24T06:08:54.231Z,6.37
2017-11-24T06:11:22.505Z,2.95
2017-11-24T06:13:50.746Z,3.92
2017-11-24T06:16:19.000Z,2.83
2017-11-24T06:18:47.283Z,4.95
2017-11-24T06:21:15.523Z,4.10
2017-11-24T06:23:43.893Z,4.05
2017-11-24T06:26:12.901Z,4.30
2017-11-24T06:28:41.174Z,5.65
2017-11-24T06:31:10.018Z,5.70
2017-11-24T06:33:39.041Z,6.97
2017-11-24T06:36:07.326Z,6.32
2017-11-24T06:38:35.596Z,5.93
2017-11-24T06:41:04.017Z,6.45
2017-11-24T06:43:32.270Z,9.40
2017-11-24T06:46:00.530Z,4.62
2017-11-24T06:48:28.772Z,4.53
2017-11-24T06:50:57.840Z,3.58
2017-11-24T06:53:26.088Z,6.00
2017-11-24T06:55:55.095Z,3.60
2017-11-24T06:58:23.338Z,3.50
2017-11-24T07:00:51.575Z,5.18
2017-11-24T07:03:20.587Z,5.30
2017-11-24T07:05:48.844Z,3.53
2017-11-24T07:08:18.002Z,4.80
2017-11-24T07:10:46.255Z,6.70
2017-11-24T07:13:14.537Z,4.65
2017-11-24T07:15:42.799Z,6.75
2017-11-24T07:18:11.096Z,7.40
2017-11-24T07:20:39.342Z,5.70
2017-11-24T07:23:07.628Z,5.75
2017-11-24T07:25:35.877Z,7.53
2017-11-24T07:28:04.191Z,7.82
2017-11-24T07:30:32.448Z,4.50
2017-11-24T07:33:00.743Z,6.12
2017-11-24T07:35:28.999Z,7.75
2017-11-24T07:37:57.241Z,5.72
2017-11-24T07:40:26.251Z,5.03
2017-11-24T07:42:54.495Z,7.03
2017-11-24T07:45:22.769Z,4.40
2017-11-24T07:47:51.027Z,6.75
2017-11-24T07:50:19.354Z,4.15
2017-11-24T07:52:47.620Z,6.75
2017-11-24T07:55:17.424Z,5.43
2017-11-24T07:57:46.583Z,4.78
2017-11-24T08:00:14.880Z,4.25
2017-11-24T08:02:43.670Z,5.57
2017-11-24T08:05:11.958Z,5.82
2017-11-24T08:07:40.987Z,5.55
2017-11-24T08:10:18.265Z,4.90
2017-11-24T08:12:46.518Z,7.47
2017-11-24T08:15:15.527Z,6.35
2017-11-24T08:17:43.778Z,4.97
2017-11-24T08:20:13.675Z,4.25
2017-11-24T08:22:41.920Z,5.75
2017-11-24T08:25:10.198Z,6.15
2017-11-24T08:27:38.439Z,6.35
2017-11-24T08:30:06.795Z,4.00
2017-11-24T08:32:35.824Z,5.60
2017-11-24T08:35:04.086Z,7.53
2017-11-24T08:37:32.386Z,3.58
2017-11-24T08:40:00.627Z,3.50
2017-11-24T08:42:28.884Z,4.50
2017-11-24T08:44:57.888Z,7.45
2017-11-24T08:47:32.343Z,4.70
2017-11-24T08:50:00.720Z,6.43
2017-11-24T08:52:28.984Z,4.18
2017-11-24T08:54:57.255Z,3.42
2017-11-24T08:57:25.487Z,7.95
2017-11-24T08:59:54.505Z,6.50
2017-11-24T09:02:22.819Z,5.03
2017-11-24T09:04:51.072Z,3.58
2017-11-24T09:07:19.316Z,4.05
2017-11-24T09:09:48.411Z,6.78
2017-11-24T09:12:16.708Z,4.28
2017-11-24T09:14:45.858Z,3.05
2017-11-24T09:17:14.136Z,4.68
2017-11-24T09:19:42.407Z,2.90
2017-11-24T09:22:10.648Z,3.15
2017-11-24T09:24:38.920Z,3.78
2017-11-24T09:27:07.161Z,2.97
2017-11-24T09:29:36.310Z,3.78
2017-11-24T09:32:04.596Z,3.78
2017-11-24T09:34:32.937Z,4.78
2017-11-24T09:37:01.841Z,3.42
2017-11-24T09:39:30.114Z,4.07
2017-11-24T09:41:58.384Z,5.50
2017-11-24T09:44:26.628Z,3.20
2017-11-24T09:46:56.365Z,3.65
2017-11-24T09:49:24.610Z,4.43
2017-11-24T09:51:53.619Z,5.03
2017-11-24T09:54:21.869Z,4.87
2017-11-24T09:56:50.905Z,4.65
2017-11-24T09:59:19.190Z,4.68
2017-11-24T10:01:47.419Z,3.67
2017-11-24T10:04:16.531Z,3.37
2017-11-24T10:06:44.912Z,3.33
2017-11-24T10:09:13.659Z,3.12
2017-11-24T10:11:41.954Z,3.50
2017-11-24T10:14:10.957Z,3.53
2017-11-24T10:16:39.227Z,4.90
2017-11-24T10:19:08.286Z,3.12
2017-11-24T10:24:39.476Z,2.85
2017-11-24T10:27:08.677Z,7.90
2017-11-24T10:29:36.958Z,3.72
2017-11-24T10:32:05.291Z,3.90
2017-11-24T10:34:33.533Z,3.60
2017-11-24T10:37:01.788Z,4.18
2017-11-24T10:39:30.098Z,4.72
2017-11-24T10:41:58.368Z,4.78
2017-11-24T10:44:26.628Z,3.17
2017-11-24T10:46:54.892Z,5.57
2017-11-24T10:49:24.001Z,3.10
2017-11-24T10:51:52.249Z,4.78
2017-11-24T10:54:22.262Z,2.90
2017-11-24T10:56:51.315Z,3.70
2017-11-24T10:59:19.707Z,3.92
2017-11-24T11:01:48.228Z,3.95
2017-11-24T11:04:16.487Z,4.15
2017-11-24T11:06:45.554Z,2.62
2017-11-24T11:09:14.686Z,3.42
2017-11-24T11:11:42.933Z,2.60
2017-11-24T11:14:11.268Z,2.60
2017-11-24T11:16:39.527Z,5.15
2017-11-24T11:19:07.789Z,2.97
2017-11-24T11:21:36.133Z,2.70
2017-11-24T11:24:05.232Z,3.17
2017-11-24T11:26:35.279Z,2.30
2017-11-24T11:29:03.593Z,3.10
2017-11-24T11:31:32.017Z,2.60
2017-11-24T11:34:01.081Z,4.32
2017-11-24T11:36:29.340Z,2.65
2017-11-24T11:38:57.612Z,3.22
2017-11-24T11:41:25.869Z,3.72
2017-11-24T11:43:54.225Z,5.95
2017-11-24T11:46:22.520Z,3.22
2017-11-24T11:48:50.802Z,2.90
2017-11-24T11:51:19.055Z,2.45
2017-11-24T11:53:47.314Z,2.70
2017-11-24T11:56:16.383Z,3.55
2017-11-24T11:58:44.669Z,3.25
2017-11-24T12:01:12.940Z,2.42
2017-11-24T12:03:41.236Z,3.22
2017-11-24T12:06:10.304Z,4.45
2017-11-24T12:08:38.603Z,5.30
2017-11-24T12:11:07.609Z,4.95
2017-11-24T12:13:35.866Z,5.90
2017-11-24T12:16:04.885Z,2.10
2017-11-24T12:18:33.134Z,3.35
2017-11-24T12:21:02.153Z,3.60
2017-11-24T12:23:30.469Z,4.07
2017-11-24T12:25:58.729Z,2.35
2017-11-24T12:28:26.994Z,1.80
2017-11-24T12:30:55.642Z,2.95
2017-11-24T12:33:24.702Z,3.17
2017-11-24T12:35:53.014Z,3.65
2017-11-24T12:38:22.056Z,3.45
2017-11-24T12:40:50.347Z,2.40
2017-11-24T12:43:18.625Z,2.00
2017-11-24T12:45:46.903Z,2.75
2017-11-24T12:48:15.165Z,3.05
2017-11-24T12:50:43.452Z,4.45
2017-11-24T12:53:11.747Z,3.85
2017-11-24T12:55:40.788Z,2.30
2017-11-24T12:58:09.534Z,3.20
2017-11-24T13:00:38.561Z,2.78
2017-11-24T13:03:07.112Z,3.08
2017-11-24T13:05:36.142Z,2.28
2017-11-24T13:08:04.414Z,2.40
2017-11-24T13:10:32.717Z,3.97
2017-11-24T13:13:00.973Z,2.00
2017-11-24T13:15:29.265Z,2.53
2017-11-24T13:17:57.564Z,2.62
2017-11-24T13:20:25.808Z,2.20
2017-11-24T13:22:54.109Z,2.45
2017-11-24T13:25:22.383Z,2.83
2017-11-24T13:27:50.684Z,2.67
2017-11-24T13:30:19.752Z,3.50
2017-11-24T13:32:48.026Z,2.30
2017-11-24T13:35:16.315Z,4.12
2017-11-24T13:37:44.591Z,3.37
2017-11-24T13:40:12.887Z,3.00
2017-11-24T13:42:41.200Z,3.55
2017-11-24T13:45:09.731Z,2.70
2017-11-24T13:47:38.801Z,3.42
2017-11-24T13:50:07.068Z,2.50
2017-11-24T13:52:35.343Z,3.55
2017-11-24T13:55:04.323Z,2.20
2017-11-24T13:57:32.650Z,3.47
2017-11-24T14:00:01.880Z,2.10
2017-11-24T14:02:30.181Z,2.97
2017-11-24T14:04:58.584Z,2.25
2017-11-24T14:07:26.852Z,2.28
2017-11-24T14:09:55.109Z,4.68
2017-11-24T14:12:23.734Z,2.20
2017-11-24T14:14:52.763Z,3.00
2017-11-24T14:17:21.096Z,3.05
2017-11-24T14:19:50.108Z,2.65
2017-11-24T14:22:18.436Z,2.62
2017-11-24T14:24:46.710Z,4.35
2017-11-24T14:27:15.064Z,4.97
2017-11-24T14:29:43.419Z,2.80
2017-11-24T14:32:12.085Z,3.30
2017-11-24T14:34:41.109Z,1.85
2017-11-24T14:37:09.402Z,2.40
2017-11-24T14:39:37.673Z,3.87
2017-11-24T14:42:05.964Z,3.62
2017-11-24T14:44:34.246Z,2.90
2017-11-24T14:47:02.655Z,3.22
2017-11-24T14:49:31.694Z,2.33
2017-11-24T14:51:59.943Z,2.50
2017-11-24T14:54:28.931Z,3.62
2017-11-24T14:56:57.207Z,4.47
2017-11-24T14:59:25.581Z,4.05
2017-11-24T15:01:53.922Z,2.45
2017-11-24T15:04:22.334Z,2.70
2017-11-24T15:06:50.650Z,2.70
2017-11-24T15:09:19.174Z,2.87
2017-11-24T15:11:47.556Z,2.62
2017-11-24T15:14:16.595Z,2.55
2017-11-24T15:16:44.879Z,3.25
2017-11-24T15:19:13.240Z,5.00
2017-11-24T15:21:41.730Z,4.78
2017-11-24T15:24:10.002Z,4.32
2017-11-24T15:26:38.304Z,2.33
2017-11-24T15:29:06.752Z,3.47
2017-11-24T15:31:35.027Z,2.45
2017-11-24T15:34:03.388Z,2.95
2017-11-24T15:36:31.757Z,2.72
2017-11-24T15:39:00.053Z,2.95
2017-11-24T15:41:28.315Z,3.78
2017-11-24T15:43:56.672Z,4.15
2017-11-24T15:46:27.484Z,4.10
2017-11-24T15:48:55.927Z,3.20
2017-11-24T15:51:26.255Z,2.90
2017-11-24T15:53:56.775Z,2.92
2017-11-24T15:56:25.321Z,2.80
2017-11-24T15:58:54.127Z,3.25
2017-11-24T16:01:22.424Z,4.53
2017-11-24T16:03:50.782Z,2.80
2017-11-24T16:06:19.036Z,3.25
2017-11-24T16:08:47.408Z,4.72
2017-11-24T16:11:16.549Z,2.70
2017-11-24T16:13:46.630Z,4.32
2017-11-24T16:16:15.707Z,3.03
2017-11-24T16:18:43.994Z,4.82
2017-11-24T16:21:13.055Z,3.53
2017-11-24T16:23:41.470Z,4.50
2017-11-24T16:26:10.542Z,4.65
2017-11-24T16:28:38.820Z,5.97
2017-11-24T16:31:07.096Z,5.62
2017-11-24T16:33:35.999Z,6.07
2017-11-24T16:36:05.099Z,3.55
2017-11-24T16:38:33.980Z,3.67
2017-11-24T16:41:04.281Z,3.62
2017-11-24T16:43:33.785Z,4.55
2017-11-24T16:46:02.155Z,4.43
2017-11-24T16:48:30.474Z,5.68
2017-11-24T16:51:01.725Z,4.10
2017-11-24T16:53:36.177Z,4.43
2017-11-24T16:56:04.710Z,5.60
2017-11-24T16:58:35.089Z,4.37
2017-11-24T17:01:05.551Z,4.18
2017-11-24T17:03:35.642Z,4.20
2017-11-24T17:06:07.707Z,4.10
2017-11-24T17:08:45.782Z,4.32
2017-11-24T17:11:14.182Z,4.12
2017-11-24T17:13:42.669Z,3.95
2017-11-24T17:16:10.989Z,6.10
2017-11-24T17:18:40.111Z,5.37
2017-11-24T17:21:08.368Z,2.78
2017-11-24T17:23:37.435Z,5.35
2017-11-24T17:26:05.889Z,4.40
2017-11-24T17:28:34.145Z,5.35
2017-11-24T17:31:02.506Z,5.47
2017-11-24T17:33:30.816Z,3.47
2017-11-24T17:35:59.193Z,3.80
2017-11-24T17:38:27.709Z,3.58
2017-11-24T17:40:56.008Z,3.85
2017-11-24T17:43:26.354Z,3.35
2017-11-24T17:45:55.385Z,3.60
2017-11-24T17:48:23.987Z,4.30
2017-11-24T17:50:52.429Z,3.87
2017-11-24T17:53:20.721Z,3.72
2017-11-24T17:55:49.027Z,4.35
2017-11-24T17:58:18.054Z,4.30
2017-11-24T18:00:48.562Z,4.75
2017-11-24T18:03:17.562Z,7.12
2017-11-24T18:05:45.835Z,3.90
2017-11-24T18:08:14.718Z,3.67
2017-11-24T18:10:47.634Z,4.25
2017-11-24T18:13:16.119Z,4.65
2017-11-24T18:15:44.492Z,7.25
2017-11-24T18:18:12.938Z,3.45
2017-11-24T18:20:41.368Z,4.97
2017-11-24T18:23:09.644Z,4.82
2017-11-24T18:25:39.282Z,5.72
2017-11-24T18:28:08.421Z,7.18
2017-11-24T18:30:37.628Z,4.65
2017-11-24T18:33:05.874Z,7.25
2017-11-24T18:35:34.116Z,4.20
2017-11-24T18:38:02.979Z,4.50
2017-11-24T18:40:31.939Z,4.90
2017-11-24T18:43:00.227Z,6.72
2017-11-24T18:45:30.244Z,4.22
2017-11-24T18:47:59.571Z,4.65
2017-11-24T18:50:30.848Z,3.60
2017-11-24T18:55:34.710Z,4.87
2017-11-24T18:58:03.055Z,5.68
2017-11-24T19:00:31.365Z,3.72
2017-11-24T19:02:59.719Z,6.18
2017-11-24T19:05:27.963Z,4.90
2017-11-24T19:07:56.942Z,6.45
2017-11-24T19:10:26.851Z,4.60
2017-11-24T19:12:55.117Z,5.70
2017-11-24T19:15:31.020Z,4.47
2017-11-24T19:18:00.956Z,5.90
2017-11-24T19:20:33.440Z,4.72
2017-11-24T19:23:02.704Z,4.78
2017-11-24T19:25:31.005Z,5.40
2017-11-24T19:27:59.272Z,4.55
2017-11-24T19:30:27.718Z,4.68
2017-11-24T19:32:58.738Z,4.30
2017-11-24T19:35:27.376Z,4.72
2017-11-24T19:37:55.686Z,5.68
2017-11-24T19:40:28.334Z,4.78
2017-11-24T19:42:56.912Z,5.95
2017-11-24T19:45:25.357Z,4.80
2017-11-24T19:47:54.394Z,4.70
2017-11-24T19:50:22.712Z,6.32
2017-11-24T19:52:51.124Z,4.20
2017-11-24T19:55:22.528Z,5.05
2017-11-24T19:57:50.777Z,4.28
2017-11-24T20:00:19.066Z,5.15
2017-11-24T20:02:47.465Z,6.90
2017-11-24T20:05:15.782Z,4.97
2017-11-24T20:07:44.049Z,9.77
2017-11-24T20:10:12.319Z,4.97
2017-11-24T20:12:40.608Z,7.03
2017-11-24T20:15:08.897Z,5.37
2017-11-24T20:17:37.209Z,5.25
2017-11-24T20:20:05.798Z,6.07
2017-11-24T20:22:35.204Z,7.22
2017-11-24T20:25:04.560Z,5.97
2017-11-24T20:27:32.888Z,5.78
2017-11-24T20:30:01.964Z,8.25
2017-11-24T20:32:30.461Z,6.95
2017-11-24T20:34:58.799Z,6.55
2017-11-24T20:37:27.457Z,6.05
2017-11-24T20:42:52.061Z,6.60
2017-11-24T20:45:20.548Z,7.57
2017-11-24T20:47:50.916Z,6.30
2017-11-24T20:50:19.999Z,8.70
2017-11-24T20:52:49.512Z,7.82
2017-11-24T20:55:17.891Z,9.50
2017-11-24T20:57:47.233Z,8.50
2017-11-24T21:00:15.620Z,8.15
2017-11-24T21:02:44.057Z,7.87
2017-11-24T21:05:12.349Z,7.62
2017-11-24T21:07:41.496Z,7.07
2017-11-24T21:10:10.531Z,8.43
2017-11-24T21:12:40.265Z,7.95
2017-11-24T21:15:08.633Z,6.68
2017-11-24T21:17:37.840Z,7.72
2017-11-24T21:20:06.133Z,8.35
2017-11-24T21:22:34.424Z,7.97
2017-11-24T21:25:02.726Z,8.60
2017-11-24T21:27:31.104Z,7.55
2017-11-24T21:29:59.376Z,8.75
2017-11-24T21:32:27.809Z,7.20
2017-11-24T21:34:56.132Z,8.13
2017-11-24T21:37:24.437Z,7.70
2017-11-24T21:39:53.562Z,7.78
2017-11-24T21:42:21.892Z,7.65
2017-11-24T21:44:50.172Z,8.07
2017-11-24T21:47:19.040Z,7.87
2017-11-24T21:49:47.465Z,6.97
2017-11-24T21:52:16.552Z,7.40
2017-11-24T21:54:46.537Z,7.25
2017-11-24T21:57:14.822Z,6.85
2017-11-24T21:59:43.194Z,7.03
2017-11-24T22:02:11.469Z,6.43
2017-11-24T22:04:40.761Z,7.70
2017-11-24T22:07:09.065Z,6.53
2017-11-24T22:09:38.899Z,7.47
2017-11-24T22:12:07.167Z,7.85
2017-11-24T22:14:35.465Z,8.05
2017-11-24T22:17:03.729Z,7.80
2017-11-24T22:19:32.008Z,8.65
2017-11-24T22:22:00.332Z,8.93
2017-11-24T22:24:29.384Z,8.60
2017-11-24T22:26:57.657Z,8.52
2017-11-24T22:29:25.931Z,8.40
2017-11-24T22:31:54.181Z,11.10
2017-11-24T22:34:23.244Z,9.50
2017-11-24T22:36:52.384Z,10.15
2017-11-24T22:39:20.663Z,9.50
2017-11-24T22:41:48.908Z,10.65
2017-11-24T22:44:17.272Z,10.38
2017-11-24T22:46:45.560Z,9.18
2017-11-24T22:49:13.833Z,11.30
2017-11-24T22:51:42.112Z,10.63
2017-11-24T22:54:10.325Z,10.25
2017-11-24T22:56:39.380Z,11.48
2017-11-24T22:59:08.515Z,10.82
2017-11-24T23:01:36.807Z,9.77
2017-11-24T23:04:05.099Z,9.63
2017-11-24T23:06:33.360Z,8.40
2017-11-24T23:09:01.794Z,9.85
2017-11-24T23:11:30.823Z,9.48
2017-11-24T23:13:59.832Z,10.40
2017-11-24T23:16:28.104Z,9.75
2017-11-24T23:18:56.390Z,9.65
2017-11-24T23:21:24.672Z,9.32
2017-11-24T23:23:52.947Z,10.13
2017-11-24T23:26:21.206Z,17.90
2017-11-24T23:28:49.451Z,10.35
2017-11-24T23:31:17.687Z,9.60
2017-11-24T23:33:45.958Z,10.90
2017-11-24T23:36:14.228Z,12.02
2017-11-24T23:38:42.763Z,9.90
2017-11-24T23:41:11.015Z,11.63
2017-11-24T23:43:40.122Z,12.90
2017-11-24T23:46:12.787Z,11.90
2017-11-24T23:48:41.630Z,12.40
2017-11-24T23:51:09.934Z,12.77
2017-11-24T23:53:38.352Z,13.05
2017-11-24T23:56:06.679Z,11.50
2017-11-24T23:58:35.030Z,11.77
